Wana, West Virginia
Current Conditions -  °F | °C
As of 6:53 PM on Monday 20 Oct 2014 (Local Time) from KMGW Reporting Station
Overcast Overcast  
Wind Chill: 58°   Ceiling: 5500
Heat Index: 58°   Visibility: 10mi
Dew Point: 40°   Wind: 3mph
Humidity: 51%   Direction: 200°SSW
Pressure: 29.92"   Gusts: NA
Location:  39.7°N, 80.3°W
Report Text: KMGW 202253Z 20003KT 10SM OVC055 14/04 A2992 RMK AO2 SLP133 T01440044
Loading
Personal Weather Stations






























Interactive Weather Map
Tropical Storm Tracking
New forecast layout! Learn more

10-Day Weather Forecast

Advertisements
Track Severe Weather on mobile